Time;durP1;ratioP1;P1;durP2;ratioP2;P2;SDS_P1;SDS_P2;PMS_P1;PMS_P2;Temp;Humidity;BMP_temperature;BMP_pressure;BME280_temperature;BME280_humidity;BME280_pressure;Samples;Min_cycle;Max_cycle;Signal;HPM_P1;HPM_P2
2021/05/11 00:03:12;;;;;;;5.05;3.25;;;17.10;63.00;;;16.84;45.55;94262.88;5132511;27;20603;-81
2021/05/11 00:05:39;;;;;;;5.65;3.20;;;17.10;62.80;;;16.82;45.69;94264.97;5088952;28;20228;-81
2021/05/11 00:08:06;;;;;;;3.53;3.13;;;17.10;63.10;;;16.80;45.96;94267.06;5085131;28;20726;-80
2021/05/11 00:10:32;;;;;;;6.25;3.58;;;17.00;63.00;;;16.77;45.95;94263.06;5042628;28;20215;-80
2021/05/11 00:12:58;;;;;;;6.07;3.45;;;17.00;63.20;;;16.73;45.80;94259.28;5016420;28;20228;-80
2021/05/11 00:15:25;;;;;;;5.47;3.30;;;17.00;63.20;;;16.71;46.01;94261.41;4975673;28;20202;-80
2021/05/11 00:17:52;;;;;;;3.95;3.55;;;16.90;63.30;;;16.67;46.25;94257.63;4952309;28;20253;-81
2021/05/11 00:20:19;;;;;;;5.30;3.40;;;16.90;63.40;;;16.62;46.31;94263.69;4800159;29;20228;-80
2021/05/11 00:25:09;;;;;;;4.65;3.55;;;16.90;63.60;;;16.50;46.35;94241.78;5149677;27;20393;-81
2021/05/11 00:27:35;;;;;;;4.07;3.40;;;16.80;63.50;;;16.44;46.53;94251.53;5109651;27;20228;-81
2021/05/11 00:30:04;;;;;;;3.30;3.00;;;16.70;63.50;;;16.40;46.94;94254.91;5087525;28;20225;-81
2021/05/11 00:32:30;;;;;;;7.22;3.85;;;16.70;64.00;;;16.33;46.77;94252.41;5047099;28;20258;-81
2021/05/11 00:34:57;;;;;;;4.53;3.45;;;16.60;63.80;;;16.29;47.17;94248.66;5050089;28;20235;-81
2021/05/11 00:37:24;;;;;;;4.45;3.65;;;16.60;63.90;;;16.23;47.25;94241.72;5007864;28;20220;-79
2021/05/11 00:39:50;;;;;;;5.93;3.42;;;16.50;64.10;;;16.20;47.08;94243.00;5003700;28;20257;-81
2021/05/11 00:42:17;;;;;;;8.18;3.63;;;16.50;64.20;;;16.16;47.14;94240.03;4853791;29;20233;-81
2021/05/11 00:47:04;;;;;;;4.43;3.30;;;16.50;64.20;;;16.07;47.32;94244.13;5147853;27;20366;-81
2021/05/11 00:49:34;;;;;;;4.43;3.03;;;16.40;64.10;;;16.05;47.40;94243.59;5067683;28;20209;-81
2021/05/11 00:52:04;;;;;;;4.68;3.35;;;16.30;64.30;;;15.99;47.78;94236.59;5082929;28;20265;-81
2021/05/11 00:54:31;;;;;;;6.10;3.50;;;16.30;64.60;;;15.96;47.61;94232.59;5076316;28;20211;-81
2021/05/11 00:56:58;;;;;;;4.13;3.30;;;16.20;64.40;;;15.91;47.82;94229.88;5011821;28;20381;-81
2021/05/11 00:59:26;;;;;;;4.20;3.55;;;16.30;64.60;;;15.88;47.72;94230.38;4932576;28;20208;-80
2021/05/11 01:01:54;;;;;;;4.55;3.40;;;16.20;64.60;;;15.82;47.94;94232.13;4867639;29;20271;-81
2021/05/11 01:04:22;;;;;;;4.18;3.20;;;16.10;64.60;;;15.78;47.76;94223.06;4785793;29;20333;-82
2021/05/11 01:08:31;;;;;;;5.20;3.33;;;16.10;64.60;;;15.64;47.63;94213.84;5135932;27;20579;-81
2021/05/11 01:10:58;;;;;;;3.50;3.20;;;16.00;64.50;;;15.64;47.79;94230.50;5082312;28;20201;-81
2021/05/11 01:13:24;;;;;;;4.43;3.50;;;16.00;64.60;;;15.58;48.17;94215.59;5099701;28;20286;-81
2021/05/11 01:15:51;;;;;;;5.28;3.80;;;15.90;64.80;;;15.53;48.31;94218.16;5067610;28;20668;-81
2021/05/11 01:18:27;;;;;;;5.53;3.70;;;15.90;64.90;;;15.49;48.62;94217.84;5001720;28;20240;-81
2021/05/11 01:20:57;;;;;;;7.07;3.90;;;15.80;65.10;;;15.46;48.46;94218.31;4892727;29;20238;-81
2021/05/11 01:26:00;;;;;;;3.90;3.17;;;15.80;65.20;;;15.41;48.58;94212.16;4681895;29;20753;-80
2021/05/11 01:47:06;;;;;;;4.38;3.50;;;15.50;65.50;;;15.07;48.99;94188.34;4566619;30;20222;-81
2021/05/11 02:18:26;;;;;;;5.15;4.07;;;15.10;66.00;;;14.67;50.02;94171.50;5073056;28;20222;-80
2021/05/11 02:23:38;;;;;;;4.78;3.92;;;15.00;66.20;;;14.59;50.13;94172.66;4941000;28;20236;-79
2021/05/11 02:26:06;;;;;;;4.80;3.75;;;15.00;66.40;;;14.58;50.34;94163.94;4883284;29;20620;-80
2021/05/11 02:28:32;;;;;;;5.10;3.83;;;15.00;66.80;;;14.54;50.67;94159.38;4810900;29;20241;-81
2021/05/11 02:33:49;;;;;;;5.90;4.05;;;14.90;66.80;;;14.54;50.81;94168.09;5129346;27;20549;-81
2021/05/11 02:36:16;;;;;;;4.72;3.70;;;14.80;66.80;;;14.52;50.62;94162.22;5102391;28;20197;-81
2021/05/11 02:38:42;;;;;;;4.60;3.50;;;14.80;66.90;;;14.51;50.38;94163.28;5073191;28;20234;-81
2021/05/11 02:41:09;;;;;;;4.88;3.90;;;14.90;66.80;;;14.48;50.41;94168.25;5032018;28;20214;-80
2021/05/11 02:43:38;;;;;;;5.57;3.72;;;14.80;66.70;;;14.41;50.36;94155.97;4973557;28;20249;-80
2021/05/11 02:46:04;;;;;;;5.70;4.18;;;14.70;66.60;;;14.36;50.15;94150.59;4933024;28;20205;-80
2021/05/11 02:48:31;;;;;;;5.63;4.10;;;14.80;66.80;;;14.31;50.78;94150.50;4886624;29;20227;-80
2021/05/11 02:50:57;;;;;;;4.30;3.90;;;14.70;66.80;;;14.28;51.04;94150.97;4751535;29;20303;-80
2021/05/11 02:55:16;;;;;;;4.40;3.88;;;14.70;66.90;;;14.17;50.63;94143.88;5149473;27;20634;-80
2021/05/11 02:57:44;;;;;;;5.25;4.43;;;14.60;66.80;;;14.14;50.69;94149.63;5063057;28;20715;-81
2021/05/11 03:00:14;;;;;;;5.20;4.15;;;14.60;66.90;;;14.10;51.04;94146.66;5060264;28;20213;-80
2021/05/11 03:02:41;;;;;;;4.80;3.85;;;14.50;67.20;;;14.07;51.05;94149.75;5060159;28;20317;-80
2021/05/11 03:05:09;;;;;;;4.93;4.15;;;14.50;67.10;;;14.03;51.04;94149.41;5038856;28;20214;-81
2021/05/11 03:07:36;;;;;;;5.25;3.80;;;14.40;67.20;;;14.00;51.05;94144.59;5003286;28;20244;-80
2021/05/11 03:10:08;;;;;;;4.90;3.95;;;14.40;67.20;;;13.96;51.32;94147.94;4861112;28;20303;-81
2021/05/11 03:12:35;;;;;;;7.32;4.00;;;14.30;67.40;;;13.90;51.29;94144.38;4738324;29;20239;-80
2021/05/11 03:16:55;;;;;;;4.20;3.47;;;14.30;67.30;;;13.84;51.17;94158.47;5149111;27;21156;-81
2021/05/11 03:19:23;;;;;;;6.93;4.10;;;14.30;67.30;;;13.78;51.38;94147.03;5084357;28;20564;-81
2021/05/11 03:21:49;;;;;;;5.13;4.00;;;14.20;67.40;;;13.78;51.42;94157.59;5100764;28;20253;-80
2021/05/11 03:24:16;;;;;;;5.78;3.95;;;14.20;67.50;;;13.73;51.33;94144.28;5061524;28;20226;-80
2021/05/11 03:26:42;;;;;;;4.65;4.13;;;14.20;67.60;;;13.74;51.72;94148.53;4971326;28;20266;-81
2021/05/11 03:29:10;;;;;;;5.28;4.03;;;14.10;67.50;;;13.69;51.82;94141.31;4929892;28;20225;-80
2021/05/11 03:31:36;;;;;;;6.03;3.72;;;14.10;67.80;;;13.67;51.98;94143.38;4922568;28;20362;-81
2021/05/11 03:34:03;;;;;;;6.93;4.03;;;14.10;67.70;;;13.62;51.90;94140.59;4824360;29;20256;-80
2021/05/11 03:39:08;;;;;;;4.75;4.25;;;14.00;67.80;;;13.63;52.26;94149.34;5130554;27;20549;-81
2021/05/11 03:41:47;;;;;;;12.75;4.25;;;14.00;68.10;;;13.60;52.45;94146.13;5088937;28;20663;-80
2021/05/11 03:44:17;;;;;;;5.18;3.97;;;13.90;68.20;;;13.60;52.21;94145.31;5070630;28;20232;-80
2021/05/11 03:46:43;;;;;;;6.28;4.18;;;13.90;68.10;;;13.61;52.08;94154.84;5037162;28;20229;-80
2021/05/11 03:49:11;;;;;;;6.22;3.70;;;13.90;68.30;;;13.62;52.13;94156.41;4972352;28;20293;-80
2021/05/11 03:51:38;;;;;;;5.57;4.15;;;14.00;68.40;;;13.63;52.33;94144.84;4914749;29;20531;-80
2021/05/11 03:54:08;;;;;;;8.40;5.13;;;13.90;68.30;;;13.60;52.29;94143.47;4849074;29;20240;-80
2021/05/11 03:56:36;;;;;;;20.63;14.38;;;13.90;68.70;;;13.63;51.79;94144.06;4713197;29;20224;-79
2021/05/11 03:59:14;;;;;;;18.25;14.75;;;13.90;68.60;;;13.67;52.51;94140.75;5129931;27;20538;-80
2021/05/11 04:01:41;;;;;;;11.32;10.10;;;13.90;68.60;;;13.69;52.19;94130.75;5071169;28;20207;-79
2021/05/11 04:04:07;;;;;;;8.07;6.82;;;14.00;68.80;;;13.69;53.01;94112.31;5066713;28;20223;-80
2021/05/11 04:06:34;;;;;;;7.18;5.80;;;13.80;68.90;;;13.77;52.80;94122.50;5053584;28;20207;-79
2021/05/11 04:12:01;;;;;;;6.18;4.90;;;14.00;69.30;;;13.88;53.36;94120.88;4962588;28;20228;-80
2021/05/11 04:17:12;;;;;;;6.47;5.72;;;14.10;69.50;;;14.01;53.07;94121.66;4678270;29;20310;-81
2021/05/11 04:19:50;;;;;;;9.25;7.07;;;14.10;69.60;;;14.06;53.47;94109.41;5141236;27;20391;-81
2021/05/11 04:22:16;;;;;;;6.72;6.00;;;14.20;69.80;;;14.14;53.45;94112.72;5104704;28;20232;-80
2021/05/11 04:24:43;;;;;;;8.05;6.38;;;14.30;69.80;;;14.22;53.33;94105.22;5094089;28;20284;-81
2021/05/11 04:27:09;;;;;;;7.82;7.13;;;14.30;69.90;;;14.27;53.49;94114.25;5080804;28;20448;-81
2021/05/11 04:29:36;;;;;;;8.90;6.80;;;14.40;70.00;;;14.35;53.42;94117.31;5040730;28;20215;-81
2021/05/11 04:32:02;;;;;;;8.43;7.57;;;14.40;70.00;;;14.40;53.40;94108.72;5048405;28;20731;-80
2021/05/11 04:34:29;;;;;;;8.23;6.50;;;14.40;70.00;;;14.43;53.41;94102.97;4973718;28;20223;-80
2021/05/11 04:36:55;;;;;;;8.75;6.68;;;14.50;70.10;;;14.52;53.51;94103.41;4834991;29;20667;-81
2021/05/11 04:41:17;;;;;;;8.07;5.13;;;14.50;70.10;;;14.62;53.32;94115.97;5149770;27;20560;-81
2021/05/11 04:43:45;;;;;;;7.10;5.05;;;14.70;70.00;;;14.69;53.11;94117.44;5088154;27;20670;-82
2021/05/11 04:48:48;;;;;;;6.55;5.43;;;14.80;70.20;;;14.83;53.89;94112.69;5032958;28;20279;-81
2021/05/11 04:51:16;;;;;;;7.10;5.43;;;14.80;70.80;;;14.92;53.81;94107.03;5025646;28;20236;-80
2021/05/11 04:53:44;;;;;;;6.70;5.45;;;14.90;70.30;;;14.98;53.69;94103.44;4947671;28;20235;-80
2021/05/11 04:56:11;;;;;;;10.98;5.78;;;15.00;70.40;;;15.09;53.71;94107.81;4862006;29;22569;-81
2021/05/11 04:58:38;;;;;;;6.18;5.28;;;15.10;70.50;;;15.17;53.58;94112.72;4660565;30;20318;-81
2021/05/11 05:03:15;;;;;;;6.97;6.07;;;15.10;70.30;;;15.28;53.52;94108.41;5138916;27;20565;-81
2021/05/11 05:05:45;;;;;;;7.13;5.72;;;15.20;70.10;;;15.32;53.65;94101.56;5108841;28;20196;-81
2021/05/11 05:08:11;;;;;;;7.88;6.25;;;15.30;70.20;;;15.45;53.67;94108.38;5106841;28;20248;-81
2021/05/11 05:10:38;;;;;;;8.10;5.82;;;15.40;70.30;;;15.50;53.55;94102.34;5056301;28;20625;-81
2021/05/11 05:13:04;;;;;;;6.03;5.10;;;15.40;70.30;;;15.58;53.72;94115.16;4982754;28;20256;-81
2021/05/11 05:15:31;;;;;;;7.13;5.22;;;15.50;70.40;;;15.65;53.57;94099.94;4934426;28;20210;-81
2021/05/11 05:17:59;;;;;;;6.85;5.07;;;15.60;70.50;;;15.76;53.84;94108.00;4814106;29;20633;-81
2021/05/11 05:20:25;;;;;;;9.23;5.15;;;15.60;70.50;;;15.83;53.51;94100.72;4709782;30;20220;-82
2021/05/11 05:24:57;;;;;;;6.15;4.90;;;15.80;70.50;;;15.95;53.55;94098.78;5149417;27;21148;-80
2021/05/11 05:27:25;;;;;;;5.43;4.60;;;15.90;70.50;;;16.08;53.57;94096.81;5076797;28;20222;-82
2021/05/11 05:29:52;;;;;;;8.05;5.53;;;15.90;70.50;;;16.20;53.75;94097.47;5062075;28;20262;-82
2021/05/11 05:32:19;;;;;;;6.40;5.20;;;16.00;70.60;;;16.30;53.99;94092.28;5051835;28;20226;-81
2021/05/11 05:34:46;;;;;;;7.85;5.32;;;16.10;70.50;;;16.43;53.49;94104.34;5051239;28;20680;-82
2021/05/11 05:37:12;;;;;;;6.72;4.95;;;16.20;70.50;;;16.53;53.25;94102.84;4964955;28;20238;-81
2021/05/11 05:39:44;;;;;;;7.07;4.75;;;16.30;70.50;;;16.60;53.28;94109.56;4955531;28;20528;-82
2021/05/11 05:42:11;;;;;;;6.13;5.10;;;16.40;70.30;;;16.68;53.25;94105.66;4764339;29;20644;-81
2021/05/11 05:44:48;;;;;;;7.28;4.68;;;16.60;70.40;;;16.70;53.12;94100.94;5149076;27;20663;-81
2021/05/11 05:47:17;;;;;;;5.25;4.63;;;16.60;70.40;;;16.80;53.28;94108.16;5125045;27;20216;-82
2021/05/11 05:49:46;;;;;;;5.18;4.68;;;16.60;70.40;;;16.88;52.98;94106.91;5065809;28;20257;-81
2021/05/11 05:52:20;;;;;;;5.38;4.85;;;16.80;70.50;;;16.94;53.28;94098.78;5044705;28;20234;-81
2021/05/11 05:54:47;;;;;;;6.18;4.90;;;16.80;70.40;;;17.00;53.25;94089.03;5027001;28;20634;-82
2021/05/11 05:57:15;;;;;;;5.25;4.75;;;16.80;70.30;;;17.09;53.05;94094.69;5003556;28;20301;-81
2021/05/11 05:59:43;;;;;;;6.22;4.38;;;16.90;70.40;;;17.16;52.90;94089.16;4948626;28;20222;-81
2021/05/11 06:02:15;;;;;;;7.68;5.00;;;17.00;70.50;;;17.23;53.19;94095.84;4843625;29;20252;-80
2021/05/11 06:04:53;;;;;;;5.90;4.25;;;17.00;70.40;;;17.30;53.13;94082.38;5146175;27;20310;-80
2021/05/11 06:07:20;;;;;;;5.20;4.70;;;17.10;70.30;;;17.39;52.78;94094.13;5090312;28;20697;-80
2021/05/11 06:09:48;;;;;;;6.65;4.75;;;17.20;70.50;;;17.47;52.83;94089.38;5042623;28;21101;-81
2021/05/11 06:12:23;;;;;;;7.57;4.70;;;17.30;70.30;;;17.52;52.84;94089.44;5031317;28;20342;-81
2021/05/11 06:17:39;;;;;;;5.72;4.53;;;17.40;71.20;;;17.66;52.60;94087.09;4943033;28;20279;-80
2021/05/11 06:20:07;;;;;;;6.50;4.47;;;17.50;70.20;;;17.72;52.80;94089.56;4830067;29;20355;-80
2021/05/11 06:22:34;;;;;;;5.05;4.47;;;17.50;70.00;;;17.81;52.60;94079.25;4687053;29;20613;-82
2021/05/11 06:25:12;;;;;;;6.60;4.95;;;17.60;70.20;;;17.89;52.53;94081.41;5150316;27;20305;-81
2021/05/11 06:27:38;;;;;;;5.65;4.75;;;17.70;70.10;;;17.96;52.22;94078.53;5094752;27;20281;-81
2021/05/11 06:30:06;;;;;;;7.97;5.15;;;17.80;70.10;;;18.03;53.01;94081.75;5096628;28;20217;-81
2021/05/11 06:32:32;;;;;;;6.18;4.70;;;17.80;70.30;;;18.15;52.76;94086.03;5083090;28;20603;-80
2021/05/11 06:35:03;;;;;;;8.23;4.93;;;17.90;70.30;;;18.27;52.27;94083.97;5014629;28;20267;-81
2021/05/11 06:37:30;;;;;;;7.35;5.10;;;17.90;70.20;;;18.37;52.62;94081.34;4882870;29;20232;-81
2021/05/11 06:39:58;;;;;;;7.55;5.45;;;18.10;70.20;;;18.54;52.80;94093.59;4803588;29;20252;-81
2021/05/11 06:42:26;;;;;;;6.68;5.03;;;18.10;70.20;;;18.68;52.21;94091.25;4714864;30;20274;-81
2021/05/11 06:47:08;;;;;;;4.80;4.30;;;18.30;70.20;;;18.88;52.04;94093.13;5132667;27;20563;-81
2021/05/11 06:54:54;;;;;;;5.20;4.13;;;18.70;69.80;;;19.23;51.75;94093.47;5025357;28;20200;-81
2021/05/11 06:57:21;;;;;;;4.53;4.10;;;18.80;69.80;;;19.32;52.01;94092.66;4985176;28;20282;-81
2021/05/11 06:59:47;;;;;;;5.18;4.22;;;18.90;69.80;;;19.44;51.35;94097.69;4960912;28;20582;-82
2021/05/11 07:02:13;;;;;;;4.72;3.90;;;19.00;69.70;;;19.52;51.33;94093.72;4901517;29;20695;-81
2021/05/11 07:05:04;;;;;;;5.30;4.20;;;19.20;69.70;;;19.66;51.32;94096.59;5150322;27;20945;-81
2021/05/11 07:07:32;;;;;;;5.32;3.70;;;19.20;69.40;;;19.76;50.94;94103.78;5107095;28;20578;-81
2021/05/11 07:10:26;;;;;;;6.88;4.50;;;19.30;69.30;;;19.87;51.00;94115.22;5062584;28;20207;-81
2021/05/11 07:13:10;;;;;;;8.07;5.20;;;19.40;69.10;;;19.97;50.56;94110.69;5024949;28;20272;-81
2021/05/11 07:15:43;;;;;;;12.02;7.00;;;19.50;69.10;;;20.09;50.49;94118.38;4892030;29;20209;-80
2021/05/11 07:18:24;;;;;;;11.88;5.90;;;19.60;68.90;;;20.24;50.41;94122.06;4839578;29;20242;-82
2021/05/11 07:21:00;;;;;;;8.65;4.93;;;19.70;68.60;;;20.27;49.98;94113.50;4687455;30;20237;-81
2021/05/11 07:26:13;;;;;;;5.47;4.13;;;19.80;68.40;;;20.33;49.84;94106.31;5149264;27;20567;-81
2021/05/11 07:31:28;;;;;;;6.65;4.57;;;20.00;67.80;;;20.28;49.93;94113.22;5085010;28;20456;-80
2021/05/11 07:33:56;;;;;;;7.15;5.38;;;20.00;67.80;;;20.25;49.71;94105.78;5056710;28;20229;-80
2021/05/11 07:36:24;;;;;;;5.55;4.57;;;20.00;67.90;;;20.23;49.68;94109.81;5062841;28;20211;-81
2021/05/11 07:38:51;;;;;;;8.25;4.22;;;20.00;67.80;;;20.19;49.83;94101.56;4978639;28;20233;-81
2021/05/11 07:41:19;;;;;;;5.85;3.97;;;20.00;67.70;;;20.14;49.63;94106.88;4943925;28;20213;-81
2021/05/11 08:03:11;;;;;;;6.30;4.35;;;19.90;68.00;;;20.21;50.18;94111.94;4783569;29;20238;-81
2021/05/11 08:16:00;;;;;;;7.10;4.32;;;20.30;68.30;;;21.18;49.50;94099.97;5032635;28;20238;-81
2021/05/11 08:28:38;;;;;;;7.03;4.10;;;21.00;67.60;;;21.88;47.85;94095.38;5135227;27;20648;-81
2021/05/11 08:31:05;;;;;;;4.03;3.63;;;21.20;67.30;;;22.00;47.78;94092.31;5104250;28;20236;-81
2021/05/11 08:33:32;;;;;;;6.15;3.75;;;21.30;67.00;;;22.11;47.64;94075.09;5033516;28;20647;-81
2021/05/11 08:35:59;;;;;;;4.63;3.60;;;21.50;67.00;;;22.24;47.30;94070.94;5034050;28;20241;-80
2021/05/11 08:38:26;;;;;;;4.22;3.47;;;21.60;66.70;;;22.33;47.04;94076.44;5005832;28;20235;-81
2021/05/11 08:40:53;;;;;;;5.35;3.30;;;21.70;66.60;;;22.46;46.87;94075.75;4962318;28;20584;-81
2021/05/11 08:43:35;;;;;;;6.05;3.67;;;21.80;66.50;;;22.59;46.83;94074.25;4916748;28;20599;-81
2021/05/11 08:46:07;;;;;;;3.83;3.17;;;21.90;66.00;;;22.70;46.00;94074.91;4745147;29;20308;-80
2021/05/11 08:50:40;;;;;;;3.35;3.03;;;22.00;65.10;;;22.85;45.59;94076.56;5136728;27;20533;-81
2021/05/11 09:15:40;;;;;;;4.90;3.30;;;23.00;64.60;;;23.74;43.28;94064.19;5041389;28;20343;-82
2021/05/11 09:28:36;;;;;;;4.82;3.20;;;23.50;63.40;;;24.23;42.88;94042.38;4670502;30;20351;-81
2021/05/11 10:48:39;;;;;;;4.28;2.67;;;26.80;58.10;;;27.76;37.05;93980.34;5027675;28;20241;-81
2021/05/11 10:51:17;;;;;;;5.05;2.53;;;26.90;58.10;;;27.85;35.58;93968.75;4919423;28;20218;-82
2021/05/11 10:53:58;;;;;;;3.65;2.40;;;27.10;57.30;;;27.95;35.94;93971.06;4803831;29;24135;-82
2021/05/11 11:01:56;;;;;;;4.60;2.30;;;27.40;57.40;;;28.27;35.09;93958.03;5079236;28;20216;-83
2021/05/11 11:04:45;;;;;;;1.92;1.70;;;27.50;55.60;;;28.37;35.05;93954.97;5070228;28;20221;-81
2021/05/11 11:07:14;;;;;;;6.22;1.90;;;27.50;55.30;;;28.54;34.68;93955.94;5020613;28;20307;-82
2021/05/11 11:09:55;;;;;;;4.30;2.05;;;27.60;55.30;;;28.63;34.58;93956.69;4954557;28;22751;-82
2021/05/11 11:12:22;;;;;;;3.55;2.00;;;27.80;54.90;;;28.74;33.34;93955.19;4886270;29;20224;-82
2021/05/11 11:14:49;;;;;;;2.42;2.00;;;27.90;54.00;;;28.83;33.39;93954.31;4795733;29;20224;-82
2021/05/11 11:19:55;;;;;;;3.75;1.75;;;28.10;53.40;;;29.04;33.15;93949.66;5150467;27;21142;-82
2021/05/11 11:25:07;;;;;;;4.75;1.95;;;28.20;52.70;;;29.19;31.85;93947.47;5059937;28;20220;-82
2021/05/11 11:27:34;;;;;;;2.28;1.75;;;28.40;52.00;;;29.27;31.70;93940.38;5053007;28;20309;-82
2021/05/11 11:30:12;;;;;;;3.55;1.77;;;28.40;51.70;;;29.31;31.78;93931.31;5008348;28;20212;-81
2021/05/11 11:32:39;;;;;;;3.20;1.98;;;28.50;51.40;;;29.37;31.36;93934.59;4968374;28;20237;-82
2021/05/11 11:35:09;;;;;;;3.38;1.90;;;28.60;51.10;;;29.46;30.92;93926.38;4865852;29;20291;-82
2021/05/11 11:37:37;;;;;;;4.82;2.15;;;28.70;50.70;;;29.52;30.95;93920.41;4758255;29;20248;-82
2021/05/11 11:40:17;;;;;;;10.25;2.50;;;28.70;50.20;;;29.59;29.75;93925.25;5149796;27;20313;-82
2021/05/11 11:42:46;;;;;;;3.13;2.10;;;28.80;49.90;;;29.66;31.01;93930.09;5079781;28;20719;-82
2021/05/11 11:45:27;;;;;;;4.65;1.95;;;28.90;50.70;;;29.75;31.12;93921.88;5047934;28;20236;-79
2021/05/11 11:48:00;;;;;;;2.65;1.83;;;28.90;50.90;;;29.84;30.55;93917.16;5029269;28;20235;-81
2021/05/11 11:50:30;;;;;;;2.20;1.85;;;29.00;50.10;;;29.90;30.78;93913.13;5004453;28;20217;-81
2021/05/11 11:53:06;;;;;;;2.60;1.80;;;29.10;49.80;;;29.98;30.88;93914.09;4928571;28;20299;-82
2021/05/11 11:58:28;;;;;;;3.67;1.83;;;29.20;49.50;;;30.14;30.14;93898.78;5136105;27;20560;-82
2021/05/11 12:00:55;;;;;;;9.80;2.05;;;29.30;49.50;;;30.17;30.03;93883.78;5086415;28;20611;-82
2021/05/11 12:03:23;;;;;;;3.78;1.83;;;29.40;49.20;;;30.28;29.95;93887.56;5058218;28;20295;-82
2021/05/11 12:05:56;;;;;;;3.47;2.25;;;29.50;49.40;;;30.38;29.92;93883.59;5059665;28;20203;-82
2021/05/11 12:08:29;;;;;;;4.85;2.00;;;29.60;48.80;;;30.53;29.64;93890.25;4997452;28;20220;-81
2021/05/11 12:11:07;;;;;;;4.18;2.00;;;29.70;48.20;;;30.78;29.52;93887.41;4941826;28;20207;-82
2021/05/11 12:13:39;;;;;;;5.28;1.80;;;29.80;48.70;;;31.18;29.72;93881.13;4900083;29;20233;-82
2021/05/11 12:16:21;;;;;;;3.17;1.80;;;30.10;49.00;;;31.71;28.89;93885.50;4709969;29;20239;-82
2021/05/11 12:19:09;;;;;;;3.38;1.95;;;30.50;49.20;;;32.36;29.29;93879.59;5132601;27;20349;-81
2021/05/11 12:22:01;;;;;;;2.30;1.90;;;31.00;48.20;;;33.09;28.61;93868.16;5088894;28;20292;-82
2021/05/11 12:24:40;;;;;;;2.33;2.05;;;31.40;48.10;;;33.79;27.63;93863.47;5078527;28;20209;-82
2021/05/11 12:27:23;;;;;;;3.85;1.70;;;32.10;47.70;;;34.39;27.25;93858.50;5005448;28;20196;-82
2021/05/11 12:30:08;;;;;;;1.98;1.60;;;32.70;47.50;;;34.98;26.96;93858.00;4993179;28;20210;-82
2021/05/11 12:32:36;;;;;;;1.90;1.70;;;33.30;47.10;;;35.43;25.83;93861.53;4842239;28;20240;-82
2021/05/11 12:35:12;;;;;;;2.55;2.08;;;33.80;45.40;;;35.93;25.99;93849.44;4783655;29;20257;-84
2021/05/11 12:40:28;;;;;;;4.60;1.80;;;34.30;45.70;;;37.04;25.38;93829.19;5150179;27;20626;-84
2021/05/11 12:42:58;;;;;;;2.92;1.67;;;35.50;44.30;;;37.47;23.98;93845.66;5071790;28;20218;-85
2021/05/11 12:45:26;;;;;;;3.75;2.10;;;36.00;43.10;;;37.84;23.64;93838.97;5106516;28;20270;-84
2021/05/11 12:48:00;;;;;;;4.95;1.83;;;36.40;41.90;;;38.12;23.22;93820.94;5068706;28;20226;-85
2021/05/11 12:50:39;;;;;;;2.55;1.92;;;36.80;41.20;;;38.43;23.35;93823.97;5004602;28;20237;-85
2021/05/11 13:01:27;;;;;;;7.63;1.98;;;38.00;40.00;;;39.64;22.06;93798.88;5145017;27;20822;-82
2021/05/11 13:04:29;;;;;;;3.17;2.10;;;38.80;40.00;;;39.90;21.42;93787.69;5077460;28;20261;-82
2021/05/11 13:21:18;;;;;;;1.83;1.73;;;40.80;36.50;;;41.58;20.21;93794.84;5150364;27;20953;-82
2021/05/11 13:26:37;;;;;;;1.98;1.77;;;41.50;35.40;;;42.11;19.14;93760.47;4999013;28;20217;-81
2021/05/11 13:29:17;;;;;;;5.78;2.00;;;41.80;35.10;;;42.31;18.50;93766.78;5045150;28;20589;-83
2021/05/11 13:31:51;;;;;;;3.03;1.70;;;42.00;34.00;;;42.41;18.66;93770.50;4979881;28;20201;-82
2021/05/11 13:34:21;;;;;;;3.28;1.70;;;42.20;34.00;;;42.63;19.13;93759.78;4862759;29;20261;-82
2021/05/11 13:36:47;;;;;;;2.20;1.60;;;42.40;34.20;;;42.92;18.89;93767.44;4822530;29;20206;-81
2021/05/11 13:41:16;;;;;;;1.88;1.73;;;42.70;34.00;;;43.12;17.85;93761.06;5150118;27;20630;-82
2021/05/11 13:43:43;;;;;;;2.65;1.60;;;43.00;32.50;;;43.25;18.05;93764.69;5101232;28;20221;-81
2021/05/11 13:46:09;;;;;;;6.32;1.88;;;43.20;32.60;;;43.44;17.85;93751.22;5089070;28;20206;-82
2021/05/11 13:48:39;;;;;;;2.42;1.73;;;43.30;32.70;;;43.66;17.79;93743.94;5132123;27;20224;-83
2021/05/11 13:51:20;;;;;;;2.90;1.88;;;43.50;32.30;;;43.85;16.97;93735.16;5107357;28;20229;-81
2021/05/11 13:53:57;;;;;;;3.08;1.70;;;43.70;31.20;;;43.96;17.30;93732.94;5001285;28;20577;-83
2021/05/11 14:02:28;;;;;;;2.28;1.67;;;44.10;31.00;;;44.10;16.50;93721.44;5134465;27;20380;-82
2021/05/11 14:04:55;;;;;;;2.38;1.65;;;44.20;31.10;;;44.11;16.36;93714.72;5041473;28;20252;-82
2021/05/11 14:07:22;;;;;;;9.68;2.17;;;44.20;31.10;;;44.11;16.17;93711.19;5088277;27;20229;-83
2021/05/11 14:09:49;;;;;;;3.78;1.75;;;44.20;30.10;;;44.01;16.13;93707.50;5071648;28;20692;-83
2021/05/11 14:12:15;;;;;;;1.63;1.30;;;44.20;30.20;;;44.03;16.11;93716.13;5031370;28;20246;-82
2021/05/11 14:14:42;;;;;;;2.20;1.40;;;44.20;29.60;;;44.11;15.73;93711.94;4984336;28;20214;-83
2021/05/11 14:17:08;;;;;;;2.42;1.60;;;44.20;29.30;;;44.21;15.36;93703.78;4916429;28;20208;-84
2021/05/11 14:19:37;;;;;;;3.67;1.60;;;44.20;28.70;;;44.13;14.01;93717.03;4864625;28;20228;-83
2021/05/11 14:22:14;;;;;;;4.18;1.50;;;44.20;27.80;;;44.09;14.59;93719.13;5147135;27;20866;-84
2021/05/11 14:24:41;;;;;;;2.67;1.50;;;44.20;27.90;;;44.05;14.42;93713.69;5079378;28;20209;-83
2021/05/11 14:27:08;;;;;;;2.22;1.33;;;44.20;27.60;;;44.13;14.47;93711.50;5086645;28;20214;-84
2021/05/11 14:29:35;;;;;;;1.50;1.40;;;44.20;27.60;;;44.26;14.91;93714.28;5079901;28;20734;-84
2021/05/11 14:32:02;;;;;;;1.42;1.33;;;44.20;28.00;;;44.51;15.29;93712.78;5006991;28;20222;-84
2021/05/11 14:34:28;;;;;;;2.25;1.63;;;44.40;28.20;;;44.72;14.74;93722.41;4870177;29;20236;-83
2021/05/11 14:36:55;;;;;;;3.85;1.92;;;44.50;27.90;;;44.75;14.88;93713.22;4797176;29;20213;-84
2021/05/11 14:39:24;;;;;;;3.42;1.90;;;44.60;27.80;;;44.68;14.61;93714.25;4683770;30;21033;-83
2021/05/11 14:42:02;;;;;;;3.80;2.10;;;44.60;27.60;;;44.53;14.62;93721.41;5148928;27;20829;-83
2021/05/11 14:44:28;;;;;;;3.25;1.90;;;44.60;27.80;;;44.38;14.95;93719.09;5123322;28;20204;-84
2021/05/11 14:46:56;;;;;;;2.00;1.55;;;44.50;28.20;;;44.30;15.32;93712.19;5089958;28;20236;-84
2021/05/11 14:49:24;;;;;;;2.28;1.58;;;44.40;28.30;;;44.26;15.30;93720.59;5051943;28;20733;-83
2021/05/11 14:51:51;;;;;;;4.05;1.80;;;44.30;28.20;;;44.06;15.31;93718.03;5054549;28;20210;-83
2021/05/11 14:54:18;;;;;;;3.25;1.63;;;44.20;29.20;;;43.76;15.10;93728.28;4967281;28;20242;-83
2021/05/11 14:56:44;;;;;;;6.15;1.60;;;44.00;28.00;;;43.39;15.92;93721.38;4837843;29;20299;-83
2021/05/11 14:59:11;;;;;;;2.30;1.80;;;43.70;28.00;;;43.10;15.77;93722.06;4745891;29;23483;-84
2021/05/11 15:01:44;;;;;;;4.15;1.60;;;43.30;28.00;;;42.89;15.46;93724.16;5129401;27;20383;-83
2021/05/11 15:04:11;;;;;;;8.68;2.10;;;43.10;28.50;;;42.81;15.71;93725.50;5083897;28;20229;-83
2021/05/11 15:06:38;;;;;;;1.90;1.80;;;42.90;28.20;;;42.70;15.71;93718.25;5088799;28;20643;-83
2021/05/11 15:09:07;;;;;;;2.72;1.98;;;42.70;28.50;;;42.57;15.44;93720.13;5027770;28;20228;-83
2021/05/11 15:11:34;;;;;;;3.53;1.70;;;42.50;28.50;;;42.32;15.54;93718.69;4988356;28;20202;-84
2021/05/11 15:14:01;;;;;;;1.92;1.70;;;42.30;28.50;;;41.99;15.71;93712.28;4961493;28;20592;-83
2021/05/11 15:16:31;;;;;;;3.22;1.70;;;42.00;28.50;;;41.75;16.05;93724.13;4862197;29;20203;-83
2021/05/11 15:18:57;;;;;;;3.10;1.80;;;41.80;29.40;;;41.64;16.52;93720.03;4710573;29;20248;-83
2021/05/11 15:23:43;;;;;;;2.03;1.60;;;41.50;29.20;;;41.58;16.27;93715.00;5128414;27;20970;-84
2021/05/11 15:26:13;;;;;;;2.95;1.63;;;41.30;29.00;;;41.74;16.14;93719.06;5090793;28;20205;-84
2021/05/11 15:28:40;;;;;;;3.67;2.03;;;41.20;29.00;;;41.88;16.69;93716.06;5085600;28;20225;-83
2021/05/11 15:31:07;;;;;;;2.33;1.40;;;41.30;29.00;;;42.10;16.18;93709.31;5040724;28;20222;-84
2021/05/11 15:33:34;;;;;;;4.57;1.75;;;41.30;29.00;;;42.25;16.09;93721.59;5007791;28;20313;-84